KAIA/AIA METAR and TAF weather

Enter ICAO airport designator
Station Type Date Time Source
KAIA METAR 2019/02/23 02:53 UTC NOAA

KAIA 230253Z AUTO 00000KT 6SM BR OVC008 M05/M06 A2986 RMK AO2 SLP155 T10501056 53001


Station Type Date Time Source
KAIA Decoded METAR 2019/02/23 02:53 UTC NOAA

ALLIANCE MUNICIPAL AIRPORT, NE, United States (KAIA) 42-03N 102-48W 1196M
Feb 22, 2019 - 09:53 PM EST / 2019.02.23 0253 UTC
Wind: Calm:0
Visibility: 6 mile(s):0
Sky conditions: overcast
Weather: mist
Temperature: 23.0 F (-5.0 C)
Dew Point: 21.9 F (-5.6 C)
Relative Humidity: 95%
Pressure (altimeter): 29.86 in. Hg (1011 hPa)
Pressure tendency: 0.00 inches (0.1 hPa) higher than three hours ago
ob: KAIA 230253Z AUTO 00000KT 6SM BR OVC008 M05/M06 A2986 RMK AO2 SLP155 T10501056 53001
cycle: 3

Station Type Date Time Source
KAIA TAF 2019/02/22 23:52 UTC NOAA

TAF
AMD KAIA 222250Z 2223/2318 13008KT 1SM BR OVC003
FM230100 03006KT P6SM OVC015
FM230600 30005KT P6SM BKN050
FM231500 32014KT P6SM SCT050


Example: see airport list